Latest Weather Observations for Narrandera Airport

IDN60801

Issued at 10:05 pm EST Tuesday 23 September 2014 (issued every 30 minutes, with the page automatically refreshed every 10 minutes)

About weather observations | Map of weather stations | Latest weather observations for NSW | Other Formats
Station Details ID: 074148 Name: NARRANDERA AIRPORT AWS Lat: -34.70 Lon: 146.51 Height: 145.0 m
Data from the previous 72 hours. | See also: Recent months for locations in New South Wales
Date/Time
EST
Temp
°C
App
Temp
°C
Dew
Point
Rel
Hum
%
Delta-T
°C
Wind Press
QNH
hPa
Press
MSL
hPa
Rain
since 9 am
mm
Dir
 
Spd
km/h
Gust
km/h
Spd
kts
Gust
kts
23/10:00pm 15.2 11.2 2.7 43 5.6 ENE 13 15 7 8 1022.2 1022.2 0.0
23/09:30pm 16.1 11.2 2.2 39 6.2 ENE 17 20 9 11 1022.2 1022.2 0.0
23/09:00pm 16.4 11.8 1.7 37 6.5 ENE 15 20 8 11 1022.2 1022.2 0.0
23/08:30pm 17.3 12.7 1.7 35 7.0 E 15 17 8 9 1022.1 1022.1 0.0
23/08:00pm 17.2 12.7 2.0 36 6.9 ENE 15 17 8 9 1022.5 1022.5 0.0
23/07:30pm 15.5 13.9 2.3 41 5.9 CALM 0 4 0 2 1022.7 1022.7 0.0
23/07:00pm 15.9 12.8 1.2 37 6.4 ENE 7 9 4 5 1022.7 1022.7 0.0
23/06:30pm 19.0 15.2 2.0 32 7.8 ENE 11 13 6 7 1022.5 1022.5 0.0
23/06:00pm 21.5 17.6 1.2 26 9.3 E 11 13 6 7 1022.4 1022.4 0.0
23/05:30pm 23.8 19.5 0.8 22 10.7 ENE 13 19 7 10 1022.3 1022.3 0.0
23/05:00pm 24.9 20.5 0.4 20 11.4 E 13 19 7 10 1022.3 1022.3 0.0
23/04:30pm 25.3 19.8 0.7 20 11.6 ENE 19 20 10 11 1022.2 1022.2 0.0
23/04:00pm 25.4 21.8 0.8 20 11.6 ESE 9 20 5 11 1022.5 1022.5 0.0
23/03:30pm 25.7 21.4 1.1 20 11.7 ENE 13 22 7 12 1022.7 1022.7 0.0
23/03:00pm 26.2 24.4 1.5 20 11.8 CALM 0 7 0 4 1022.9 1022.9 0.0
23/02:30pm 26.0 22.1 1.3 20 11.8 NNE 11 19 6 10 1023.3 1023.3 0.0
23/02:00pm 25.5 21.2 0.9 20 11.6 N 13 19 7 10 1023.8 1023.8 0.0
23/01:30pm 24.7 21.7 2.2 23 10.8 SSW 7 13 4 7 1024.3 1024.3 0.0
23/01:00pm 24.8 22.5 2.9 24 10.6 ENE 4 9 2 5 1024.7 1024.8 0.0
23/12:30pm 24.0 20.0 2.8 25 10.3 E 13 17 7 9 1025.3 1025.4 0.0
23/12:00pm 24.5 20.2 3.2 25 10.4 NE 15 24 8 13 1025.6 1025.7 0.0
23/11:30am 23.4 20.0 3.9 28 9.6 ENE 11 20 6 11 1026.2 1026.3 0.0
23/11:00am 22.8 18.9 3.4 28 9.4 ESE 13 24 7 13 1026.9 1026.9 0.0
23/10:30am 23.0 18.6 5.0 31 9.0 ENE 17 22 9 12 1027.5 1027.5 0.0
23/10:00am 22.1 17.9 5.5 34 8.3 ENE 17 22 9 12 1027.8 1027.8 0.0
23/09:30am 20.7 17.8 6.6 40 7.2 E 11 17 6 9 1028.2 1028.2 0.0
23/09:00am 19.4 16.5 6.5 43 6.5 ENE 11 15 6 8 1028.6 1028.6 0.0
23/08:30am 17.2 14.2 6.1 48 5.5 ENE 11 15 6 8 1028.7 1028.7 0.0
23/08:00am 15.7 13.1 5.9 52 4.7 E 9 13 5 7 1028.7 1028.7 0.0
23/07:30am 12.8 10.2 5.9 63 3.3 ESE 9 11 5 6 1028.7 1028.7 0.0
23/07:00am 9.6 6.5 5.4 75 1.9 ESE 11 13 6 7 1028.7 1028.7 0.0
23/06:30am 6.7 3.7 3.9 82 1.2 ESE 9 13 5 7 1028.4 1028.4 0.0
23/06:00am 6.6 2.8 4.1 84 1.1 SE 13 15 7 8 1028.1 1028.1 0.0
23/05:30am 5.9 3.1 3.4 84 1.1 SE 7 11 4 6 1027.9 1027.9 0.0
23/05:00am 5.6 2.4 2.8 82 1.2 SE 9 11 5 6 1027.8 1027.8 0.0
23/04:30am 6.6 3.3 2.5 75 1.7 SE 9 13 5 7 1027.6 1027.6 0.0
23/04:00am 9.0 6.4 4.0 71 2.2 SE 7 11 4 6 1027.4 1027.4 0.0
23/03:30am 9.3 6.0 4.5 72 2.1 SE 11 13 6 7 1027.3 1027.3 0.0
23/03:00am 8.4 5.5 2.4 66 2.5 SE 7 9 4 5 1027.3 1027.3 0.0
23/02:30am 9.5 6.9 3.3 65 2.7 SE 6 9 3 5 1027.4 1027.4 0.0
23/02:00am 9.8 7.1 3.8 66 2.6 SE 7 9 4 5 1027.5 1027.5 0.0
23/01:30am 9.7 8.3 3.4 65 2.8 CALM 0 0 0 0 1027.6 1027.6 0.0
23/01:00am 10.4 7.3 3.4 62 3.1 SE 9 9 5 5 1027.8 1027.8 0.0
23/12:30am 10.6 8.4 3.6 62 3.1 ESE 4 7 2 4 1028.0 1028.0 0.0
23/12:00am 10.3 7.7 3.1 61 3.1 ESE 6 7 3 4 1027.9 1027.9 0.0
 
Date/Time
EST
Temp
°C
App
Temp
°C
Dew
Point
Rel
Hum
%
Delta-T
°C
Wind Press
QNH
hPa
Press
MSL
hPa
Rain
since 9 am
mm
Dir
 
Spd
km/h
Gust
km/h
Spd
kts
Gust
kts
22/11:30pm 10.3 7.7 3.1 61 3.1 ESE 6 7 3 4 1028.0 1028.0 0.0
22/11:00pm 10.0 7.1 2.6 60 3.2 ESE 7 9 4 5 1028.1 1028.1 0.0
22/10:30pm 11.7 9.1 3.2 56 3.8 SE 6 7 3 4 1028.2 1028.2 0.0
22/10:00pm 11.6 10.1 2.9 55 3.8 CALM 0 0 0 0 1028.2 1028.2 0.0
22/09:30pm 13.5 10.3 3.3 50 4.6 ENE 9 13 5 7 1028.3 1028.3 0.0
22/09:00pm 14.9 11.0 3.4 46 5.2 ENE 13 19 7 10 1028.0 1028.0 0.0
22/08:30pm 15.8 11.6 3.6 44 5.6 ENE 15 19 8 10 1027.8 1027.8 0.0
22/08:00pm 13.1 9.0 2.4 48 4.7 ESE 13 17 7 9 1027.7 1027.7 0.0
22/07:30pm 14.6 12.3 2.5 44 5.4 ESE 4 7 2 4 1027.4 1027.4 0.0
22/07:00pm 16.2 12.9 2.6 40 6.1 ESE 9 11 5 6 1027.2 1027.2 0.0
22/06:30pm 16.4 13.0 1.7 37 6.6 E 9 13 5 7 1026.9 1026.9 0.0
22/06:00pm 19.9 17.0 2.7 32 8.0 E 7 11 4 6 1026.3 1026.4 0.0
22/05:30pm 22.3 18.9 1.9 26 9.6 E 9 13 5 7 1026.0 1026.1 0.0
22/05:00pm 23.2 19.0 1.5 24 10.1 E 13 17 7 9 1025.8 1025.9 0.0
22/04:30pm 23.7 19.5 1.4 23 10.5 ENE 13 20 7 11 1025.7 1025.8 0.0
22/04:00pm 23.9 19.2 0.9 22 10.7 ENE 15 26 8 14 1025.7 1025.8 0.0
22/03:30pm 24.2 19.3 1.8 23 10.7 E 17 30 9 16 1026.0 1026.1 0.0
22/03:00pm 24.2 20.3 1.2 22 10.8 N 11 20 6 11 1026.3 1026.4 0.0
22/02:30pm 24.0 20.9 0.4 21 10.9 NNE 6 19 3 10 1026.6 1026.7 0.0
22/02:00pm 23.9 20.3 0.9 22 10.7 N 9 17 5 9 1027.2 1027.2 0.0
22/01:30pm 23.8 19.8 0.8 22 10.7 WNW 11 22 6 12 1027.6 1027.6 0.0
22/01:00pm 23.1 20.8 2.6 26 9.8 SE 4 17 2 9 1028.0 1028.0 0.0
22/12:30pm 22.6 19.2 4.2 30 9.1 N 11 22 6 12 1028.6 1028.6 0.0
22/12:00pm 22.0 17.5 4.1 31 8.7 N 17 26 9 14 1029.1 1029.1 0.0
22/11:30am 21.1 16.5 3.8 32 8.4 N 17 28 9 15 1029.6 1029.6 0.0
22/11:00am 21.3 17.0 5.2 35 8.0 N 17 24 9 13 1030.0 1030.0 0.0
22/10:30am 20.1 17.0 5.4 38 7.3 ENE 11 19 6 10 1030.2 1030.2 0.0
22/10:00am 19.0 16.7 7.4 47 5.9 E 9 15 5 8 1030.6 1030.7 0.0
22/09:30am 16.9 13.4 7.0 52 5.0 ENE 15 19 8 10 1030.8 1030.9 0.0
22/09:00am 15.2 11.9 6.5 56 4.2 ENE 13 17 7 9 1030.8 1030.9 0.0
22/08:30am 13.8 10.2 6.7 62 3.5 ENE 15 17 8 9 1030.7 1030.8 0.0
22/08:00am 12.5 8.9 6.8 68 2.7 E 15 20 8 11 1030.7 1030.8 0.0
22/07:30am 10.5 8.3 6.1 74 2.1 ESE 7 9 4 5 1030.5 1030.6 0.0
22/07:00am 8.1 5.8 5.6 84 1.1 ESE 7 11 4 6 1030.2 1030.2 0.0
22/06:30am 6.1 2.6 3.4 83 1.1 ESE 11 15 6 8 1029.9 1029.9 0.0
22/06:00am 6.1 1.8 3.4 83 1.1 E 15 17 8 9 1029.5 1029.5 0.0
22/05:30am 6.3 3.3 4.0 85 1.0 ESE 9 11 5 6 1029.2 1029.2 0.0
22/05:00am 5.1 3.1 4.4 95 0.3 ESE 4 7 2 4 1028.7 1028.7 0.0
22/04:30am 3.8 0.6 2.8 93 0.4 ESE 9 11 5 6 1028.5 1028.5 0.0
22/04:00am 4.0 2.5 3.1 94 0.4 CALM 0 0 0 0 1028.0 1028.0 0.0
22/03:30am 3.4 0.1 2.2 92 0.5 SSE 9 11 5 6 1027.9 1027.9 0.0
22/03:00am 3.4 1.7 1.8 89 0.6 CALM 0 0 0 0 1027.9 1027.9 0.0
22/02:30am 4.3 2.8 3.0 91 0.5 CALM 0 0 0 0 1028.0 1028.0 0.0
22/02:00am 3.5 0.4 1.5 87 0.8 S 7 9 4 5 1028.1 1028.1 0.0
22/01:30am 4.1 1.0 1.6 84 1.0 SSE 7 7 4 4 1028.3 1028.3 0.0
22/01:00am 4.2 2.5 1.9 85 0.9 CALM 0 4 0 2 1028.4 1028.4 0.0
22/12:30am 4.6 2.8 1.3 79 1.3 CALM 0 2 0 1 1028.6 1028.6 0.0
22/12:00am 5.4 3.7 1.9 78 1.4 CALM 0 0 0 0 1028.6 1028.6 0.0
 
Date/Time
EST
Temp
°C
App
Temp
°C
Dew
Point
Rel
Hum
%
Delta-T
°C
Wind Press
QNH
hPa
Press
MSL
hPa
Rain
since 9 am
mm
Dir
 
Spd
km/h
Gust
km/h
Spd
kts
Gust
kts
21/11:30pm 5.6 3.9 1.9 77 1.5 CALM 0 0 0 0 1028.7 1028.7 0.0
21/11:00pm 5.7 4.0 1.6 75 1.6 CALM 0 0 0 0 1029.0 1029.0 0.0
21/10:30pm 6.7 5.1 2.6 75 1.7 CALM 0 0 0 0 1029.0 1029.0 0.0
21/10:00pm 8.4 6.9 3.1 69 2.3 CALM 0 0 0 0 1028.8 1028.8 0.0
21/09:30pm 7.8 5.8 2.1 67 2.4 S 2 9 1 5 1028.7 1028.7 0.0
21/09:00pm 9.5 7.9 2.6 62 2.9 CALM 0 0 0 0 1028.4 1028.4 0.0
21/08:30pm 9.9 8.2 1.8 57 3.4 CALM 0 0 0 0 1028.0 1028.0 0.0
21/08:00pm 10.9 9.2 2.0 54 3.8 CALM 0 0 0 0 1027.8 1027.8 0.0
21/07:30pm 12.1 9.4 2.6 52 4.2 S 6 7 3 4 1027.3 1027.3 0.0
21/07:00pm 12.8 9.8 1.8 47 4.7 SSE 7 9 4 5 1027.1 1027.1 0.0
21/06:30pm 16.0 12.9 1.3 37 6.5 SE 7 9 4 5 1026.5 1026.6 0.0
21/06:00pm 18.3 15.2 1.3 32 7.6 SE 7 11 4 6 1026.3 1026.4 0.0
21/05:30pm 20.7 16.8 1.1 27 9.0 SSE 11 15 6 8 1026.2 1026.3 0.0
21/05:00pm 21.7 18.4 0.3 24 9.7 SSE 7 15 4 8 1026.1 1026.2 0.0
21/04:30pm 22.3 18.6 0.2 23 10.1 S 9 15 5 8 1026.1 1026.2 0.0
21/04:00pm 22.5 19.0 1.5 25 9.8 SSE 9 20 5 11 1026.2 1026.3 0.0
21/03:30pm 22.8 20.6 1.2 24 10.1 SE 2 7 1 4 1026.4 1026.5 0.0
21/03:00pm 21.6 17.8 -0.4 23 9.8 E 9 13 5 7 1026.6 1026.7 0.0
21/02:30pm 22.1 17.6 -0.6 22 10.2 SSE 13 20 7 11 1027.1 1027.1 0.0
21/02:00pm 21.5 17.9 0.7 25 9.4 S 9 17 5 9 1027.4 1027.4 0.0
21/01:30pm 21.5 18.1 1.7 27 9.2 S 9 17 5 9 1027.8 1027.8 0.0
21/01:00pm 20.9 17.5 1.7 28 8.8 S 9 15 5 8 1028.3 1028.3 0.0
21/12:30pm 20.4 17.6 1.8 29 8.6 SW 6 11 3 6 1028.6 1028.6 0.0
21/12:00pm 19.8 17.0 2.2 31 8.1 S 6 13 3 7 1029.0 1029.0 0.0
21/11:30am 19.5 16.6 2.4 32 7.9 ENE 7 19 4 10 1029.2 1029.2 0.0
21/11:00am 19.0 16.5 4.7 39 6.9 NE 7 13 4 7 1029.5 1029.5 0.0
21/10:30am 17.5 14.4 5.4 45 5.9 ENE 11 17 6 9 1030.0 1030.0 0.0
21/10:00am 16.1 13.0 5.7 50 5.0 ENE 11 17 6 9 1030.2 1030.2 0.0
21/09:30am 14.9 11.1 5.7 54 4.4 ENE 15 19 8 10 1030.5 1030.6 0.0
21/09:00am 13.6 10.1 5.5 58 3.8 E 13 19 7 10 1030.5 1030.6 0.0
21/08:30am 12.8 9.4 5.7 62 3.4 E 13 19 7 10 1030.4 1030.5 0.0
21/08:00am 11.2 8.0 5.3 67 2.7 E 11 13 6 7 1030.0 1030.0 0.0
21/07:30am 8.4 7.4 5.5 82 1.3 CALM 0 0 0 0 1029.4 1029.4 0.0
21/07:00am 4.3 1.7 3.1 92 0.5 SSE 6 9 3 5 1029.0 1029.0 0.0
21/06:30am 3.1 1.3 1.2 87 0.7 CALM 0 0 0 0 1028.3 1028.3 0.0
21/06:00am 4.2 2.7 3.0 92 0.5 CALM 0 0 0 0 1027.8 1027.8 0.0
21/05:30am 3.6 0.6 2.1 90 0.6 ESE 7 9 4 5 1027.5 1027.5 0.0
21/05:00am 1.9 -0.7 0.9 93 0.4 ESE 4 9 2 5 1026.9 1026.9 0.0
21/04:30am 1.1 -1.3 -0.2 91 0.5 ESE 2 7 1 4 1026.5 1026.6 0.0
21/04:00am 1.1 -1.0 -0.5 89 0.6 CALM 0 6 0 3 1026.6 1026.7 0.0
21/03:30am 0.9 -1.2 -0.7 89 0.6 CALM 0 0 0 0 1026.4 1026.5 0.0
21/03:00am 1.6 -0.4 0.0 89 0.6 CALM 0 0 0 0 1026.6 1026.7 0.0
21/02:30am 2.0 0.1 0.5 90 0.6 CALM 0 0 0 0 1026.5 1026.6 0.0
21/02:00am 2.4 0.4 0.1 85 0.9 CALM 0 0 0 0 1026.9 1026.9 0.0
21/01:30am 2.9 0.9 0.1 82 1.1 CALM 0 0 0 0 1027.2 1027.2 0.0
21/01:00am 3.6 1.8 1.3 85 0.9 CALM 0 0 0 0 1027.4 1027.4 0.0
21/12:30am 4.3 2.5 1.0 79 1.3 CALM 0 0 0 0 1027.3 1027.3 0.0
21/12:00am 4.8 2.9 0.6 74 1.6 CALM 0 0 0 0 1027.4 1027.4 0.0
 
Date/Time
EST
Temp
°C
App
Temp
°C
Dew
Point
Rel
Hum
%
Delta-T
°C
Wind Press
QNH
hPa
Press
MSL
hPa
Rain
since 9 am
mm
Dir
 
Spd
km/h
Gust
km/h
Spd
kts
Gust
kts
20/11:30pm 5.9 4.2 1.6 74 1.7 CALM 0 0 0 0 1027.4 1027.4 0.0
20/11:00pm 6.8 5.2 2.7 75 1.7 CALM 0 0 0 0 1027.4 1027.4 0.0
20/10:30pm 6.3 4.4 0.4 66 2.3 CALM 0 0 0 0 1027.3 1027.3 0.0

Other Formats:

Comma delimited format used in spreadsheet applications
http://www.bom.gov.au/fwo/IDN60801/IDN60801.95706.axf

JavaScript Object Notation format (JSON) in row-major order
http://www.bom.gov.au/fwo/IDN60801/IDN60801.95706.json